KPBG

Plattsburgh International Airport

Plattsburgh, New York, USA
METAR KPBG 261253Z AUTO 16004KT 10SM SCT075 21/14 A2973 RMK AO2 LTG DSNT N AND NE SLP068 T02110139
Observed Flight Rules
May-26 @ 12:53 UTC (34 minutes ago) Visual Flight Rules
Wind Visibility Clouds
160° at 4 knots 10 miles
  • Scattered at 7,500' AGL
Temperatures Readings
Current 21°C / 70°F
Dewpoint 14°C / 57°F
Humidity 64%
Altimeter 29.73" Hg
Pressure 1006.8 hPa
Elevation 72
METAR KPBG 261253Z AUTO 16004KT 10SM SCT075 21/14 A2973 RMK AO2 LTG DSNT N AND NE SLP068 T02110139
Observed Flight Rules
May-26 @ 12:53 UTC
(34 minutes ago)
VFR
Wind Visibility
160° at 4 knots 10 miles
Clouds
  • Scattered at 7,500' AGL
Temperature Dewpoint
21°C / 70°F 14°C / 57°F
Humidity Altimeter Pressure
64% 29.73" Hg 1006.8 hPa